createdAt,value
2023-01-10T00:00:23.964Z,1003.93
2023-01-10T00:00:55.558Z,1003.93
2023-01-10T00:01:28.206Z,1003.83
2023-01-10T00:01:59.928Z,1003.83
2023-01-10T00:02:31.890Z,1004.03
2023-01-10T00:02:54.619Z,1004.03
2023-01-10T00:03:18.350Z,1004.03
2023-01-10T00:03:51.560Z,1004.03
2023-01-10T00:04:24.811Z,1003.93
2023-01-10T00:04:55.660Z,1003.93
2023-01-10T00:05:28.246Z,1003.93
2023-01-10T00:05:59.686Z,1003.93
2023-01-10T00:06:32.124Z,1004.13
2023-01-10T00:06:54.894Z,1004.23
2023-01-10T00:07:17.386Z,1004.23
2023-01-10T00:07:51.450Z,1004.23
2023-01-10T00:08:23.972Z,1004.03
2023-01-10T00:08:55.414Z,1004.03
2023-01-10T00:09:27.799Z,1003.93
2023-01-10T00:10:01.499Z,1003.93
2023-01-10T00:10:31.301Z,1003.93
2023-01-10T00:10:53.874Z,1004.03
2023-01-10T00:11:17.263Z,1004.03
2023-01-10T00:11:52.546Z,1004.03
2023-01-10T00:12:24.507Z,1004.03
2023-01-10T00:12:55.913Z,1004.03
2023-01-10T00:13:28.279Z,1004.03
2023-01-10T00:13:59.506Z,1004.03
2023-01-10T00:14:32.044Z,1004.03
2023-01-10T00:14:54.768Z,1004.23
2023-01-10T00:15:17.285Z,1004.23
2023-01-10T00:15:51.629Z,1004.23
2023-01-10T00:16:23.492Z,1004.03
2023-01-10T00:16:55.470Z,1004.03
2023-01-10T00:17:27.502Z,1004.23
2023-01-10T00:18:00.110Z,1004.23
2023-01-10T00:18:31.751Z,1004.13
2023-01-10T00:18:54.954Z,1004.03
2023-01-10T00:19:16.861Z,1004.03
2023-01-10T00:19:51.617Z,1004.03
2023-01-10T00:20:23.726Z,1004.13
2023-01-10T00:20:56.034Z,1004.13
2023-01-10T00:21:29.501Z,1004.33
2023-01-10T00:22:00.161Z,1004.33
2023-01-10T00:22:32.642Z,1004.23
2023-01-10T00:22:55.453Z,1004.44
2023-01-10T00:23:17.536Z,1004.44
2023-01-10T00:23:51.584Z,1004.44
2023-01-10T00:24:23.544Z,1004.33
2023-01-10T00:24:57.534Z,1004.33
2023-01-10T00:25:34.375Z,1004.23
2023-01-10T00:26:01.842Z,1004.23
2023-01-10T00:26:28.037Z,1004.33
2023-01-10T00:26:59.751Z,1004.54
2023-01-10T00:27:35.471Z,1004.54
2023-01-10T00:27:58.290Z,1004.33
2023-01-10T00:28:20.600Z,1004.33
2023-01-10T00:28:55.495Z,1004.33
2023-01-10T00:29:27.631Z,1004.44
2023-01-10T00:29:59.372Z,1004.44
2023-01-10T00:30:31.454Z,1004.44
2023-01-10T00:30:54.303Z,1004.44
2023-01-10T00:31:16.730Z,1004.44
2023-01-10T00:31:51.569Z,1004.44
2023-01-10T00:32:23.430Z,1004.44
2023-01-10T00:32:55.885Z,1004.44
2023-01-10T00:33:27.441Z,1004.44
2023-01-10T00:33:59.326Z,1004.44
2023-01-10T00:34:31.494Z,1004.23
2023-01-10T00:34:54.177Z,1004.33
2023-01-10T00:35:16.546Z,1004.33
2023-01-10T00:35:51.444Z,1004.33
2023-01-10T00:36:23.410Z,1004.54
2023-01-10T00:36:55.463Z,1004.54
2023-01-10T00:37:27.464Z,1004.44
2023-01-10T00:37:59.455Z,1004.44
2023-01-10T00:38:31.578Z,1004.64
2023-01-10T00:38:54.896Z,1004.84
2023-01-10T00:39:17.325Z,1004.84
2023-01-10T00:39:51.454Z,1004.84
2023-01-10T00:40:23.303Z,1004.74
2023-01-10T00:40:55.398Z,1004.74
2023-01-10T00:41:27.371Z,1004.84
2023-01-10T00:41:59.374Z,1004.84
2023-01-10T00:42:31.298Z,1004.64
2023-01-10T00:42:54.258Z,1004.64
2023-01-10T00:43:16.437Z,1004.64
2023-01-10T00:43:51.537Z,1004.64
2023-01-10T00:44:23.778Z,1004.64
2023-01-10T00:44:55.640Z,1004.64
2023-01-10T00:45:27.440Z,1004.54
2023-01-10T00:45:59.443Z,1004.54
2023-01-10T00:46:33.057Z,1004.64
2023-01-10T00:46:55.167Z,1004.74
2023-01-10T00:47:17.695Z,1004.74
2023-01-10T00:47:51.466Z,1004.74
2023-01-10T00:48:23.542Z,1004.74
2023-01-10T00:48:55.362Z,1004.74
2023-01-10T00:49:27.649Z,1004.84
2023-01-10T00:49:59.665Z,1004.84
2023-01-10T00:50:31.340Z,1004.84
2023-01-10T00:50:54.125Z,1004.84
2023-01-10T00:51:16.621Z,1004.84
2023-01-10T00:51:51.337Z,1004.84
2023-01-10T00:52:23.424Z,1004.91
2023-01-10T00:52:55.437Z,1004.91
2023-01-10T00:53:27.371Z,1004.64
2023-01-10T00:53:59.342Z,1004.64
2023-01-10T00:54:31.469Z,1004.84
2023-01-10T00:54:54.564Z,1004.84
2023-01-10T00:55:16.878Z,1004.84
2023-01-10T00:55:51.479Z,1004.84
2023-01-10T00:56:23.835Z,1004.91
2023-01-10T00:56:55.499Z,1004.91
2023-01-10T00:57:27.278Z,1004.91
2023-01-10T00:57:59.540Z,1004.91
2023-01-10T00:58:31.454Z,1005.01
2023-01-10T00:58:54.754Z,1005.01
2023-01-10T00:59:19.716Z,1005.01
2023-01-10T00:59:52.094Z,1005.01
2023-01-10T01:00:23.543Z,1005.11
2023-01-10T01:00:55.352Z,1005.11
2023-01-10T01:01:27.573Z,1005.11
2023-01-10T01:01:59.367Z,1005.11
2023-01-10T01:02:31.518Z,1005.11
2023-01-10T01:02:54.338Z,1005.11
2023-01-10T01:03:16.966Z,1005.11
2023-01-10T01:03:51.452Z,1005.11
2023-01-10T01:04:23.391Z,1004.91
2023-01-10T01:04:55.431Z,1004.91
2023-01-10T01:05:27.398Z,1005.21
2023-01-10T01:05:59.384Z,1005.21
2023-01-10T01:06:31.514Z,1005.21
2023-01-10T01:06:54.420Z,1004.91
2023-01-10T01:07:17.258Z,1004.91
2023-01-10T01:07:51.972Z,1004.91
2023-01-10T01:08:23.422Z,1005.11
2023-01-10T01:08:55.709Z,1005.11
2023-01-10T01:09:27.274Z,1005.11
2023-01-10T01:10:00.136Z,1005.11
2023-01-10T01:10:31.335Z,1005.32
2023-01-10T01:10:54.804Z,1005.21
2023-01-10T01:11:16.633Z,1005.21
2023-01-10T01:11:52.921Z,1005.21
2023-01-10T01:12:23.812Z,1005.21
2023-01-10T01:12:55.492Z,1005.21
2023-01-10T01:13:27.475Z,1005.32
2023-01-10T01:13:59.345Z,1005.32
2023-01-10T01:14:31.415Z,1005.62
2023-01-10T01:14:54.310Z,1005.21
2023-01-10T01:15:16.598Z,1005.21
2023-01-10T01:15:51.495Z,1005.21
2023-01-10T01:16:23.782Z,1005.32
2023-01-10T01:16:55.293Z,1005.32
2023-01-10T01:17:27.354Z,1005.52
2023-01-10T01:17:53.607Z,1005.52
2023-01-10T01:18:28.267Z,1005.52
2023-01-10T01:19:00.171Z,1005.42
2023-01-10T01:19:35.537Z,1005.42
2023-01-10T01:19:58.152Z,1005.32
2023-01-10T01:20:26.001Z,1005.32
2023-01-10T01:20:55.451Z,1005.32
2023-01-10T01:21:27.399Z,1005.52
2023-01-10T01:21:59.937Z,1005.52
2023-01-10T01:22:32.075Z,1005.62
2023-01-10T01:22:54.827Z,1005.42
2023-01-10T01:23:17.009Z,1005.42
2023-01-10T01:23:53.159Z,1005.42
2023-01-10T01:24:23.783Z,1005.52
2023-01-10T01:24:55.661Z,1005.52
2023-01-10T01:25:29.434Z,1005.52
2023-01-10T01:26:00.277Z,1005.52
2023-01-10T01:26:31.664Z,1005.62
2023-01-10T01:26:54.185Z,1005.52
2023-01-10T01:27:17.290Z,1005.52
2023-01-10T01:27:51.859Z,1005.52
2023-01-10T01:28:24.407Z,1005.72
2023-01-10T01:28:55.450Z,1005.72
2023-01-10T01:29:38.589Z,1005.72
2023-01-10T01:29:59.405Z,1005.72
2023-01-10T01:30:31.487Z,1005.52
2023-01-10T01:30:54.174Z,1005.82
2023-01-10T01:31:16.535Z,1005.82
2023-01-10T01:31:57.790Z,1005.62
2023-01-10T01:32:23.515Z,1005.62
2023-01-10T01:32:58.809Z,1005.82
2023-01-10T01:33:21.666Z,1005.82
2023-01-10T01:33:59.700Z,1005.82
2023-01-10T01:34:31.351Z,1005.72
2023-01-10T01:34:54.073Z,1005.82
2023-01-10T01:35:16.500Z,1005.82
2023-01-10T01:35:52.477Z,1005.82
2023-01-10T01:36:23.430Z,1005.72
2023-01-10T01:36:55.807Z,1005.72
2023-01-10T01:37:27.623Z,1005.82
2023-01-10T01:37:59.330Z,1005.82
2023-01-10T01:38:31.924Z,1005.93
2023-01-10T01:38:54.505Z,1006.03
2023-01-10T01:39:16.827Z,1006.03
2023-01-10T01:39:53.184Z,1006.03
2023-01-10T01:40:23.470Z,1005.93
2023-01-10T01:40:55.520Z,1005.93
2023-01-10T01:41:27.312Z,1005.93
2023-01-10T01:41:59.468Z,1005.93
2023-01-10T01:42:31.388Z,1006.23
2023-01-10T01:42:54.192Z,1006.23
2023-01-10T01:43:16.448Z,1006.23
2023-01-10T01:43:53.778Z,1006.23
2023-01-10T01:44:23.259Z,1006.23
2023-01-10T01:44:55.404Z,1006.23
2023-01-10T01:45:27.497Z,1006.03
2023-01-10T01:45:59.729Z,1006.03
2023-01-10T01:46:31.605Z,1006.03
2023-01-10T01:46:54.310Z,1006.13
2023-01-10T01:47:16.708Z,1006.13
2023-01-10T01:47:51.514Z,1006.13
2023-01-10T01:48:23.442Z,1006.23
2023-01-10T01:48:55.337Z,1006.23
2023-01-10T01:49:27.422Z,1006.23
2023-01-10T01:49:59.262Z,1006.23
2023-01-10T01:50:31.408Z,1006.23
2023-01-10T01:50:54.486Z,1006.23
2023-01-10T01:51:16.415Z,1006.23
2023-01-10T01:51:51.492Z,1006.23
2023-01-10T01:52:23.421Z,1006.33
2023-01-10T01:52:55.346Z,1006.33
2023-01-10T01:53:27.295Z,1006.33
2023-01-10T01:53:59.418Z,1006.33
2023-01-10T01:54:31.889Z,1006.33
2023-01-10T01:54:55.123Z,1006.43
2023-01-10T01:55:16.808Z,1006.43
2023-01-10T01:55:51.316Z,1006.43
2023-01-10T01:56:23.495Z,1006.43
2023-01-10T01:56:55.536Z,1006.43
2023-01-10T01:57:27.713Z,1006.43
2023-01-10T01:57:59.533Z,1006.43
2023-01-10T01:58:31.291Z,1006.33
2023-01-10T01:58:56.146Z,1006.53
2023-01-10T01:59:16.617Z,1006.53
2023-01-10T01:59:51.593Z,1006.53
2023-01-10T02:00:25.944Z,1006.53
2023-01-10T02:00:56.289Z,1006.53
2023-01-10T02:01:27.623Z,1006.43
2023-01-10T02:01:59.576Z,1006.43
2023-01-10T02:02:31.714Z,1006.64
2023-01-10T02:03:02.676Z,1006.53
2023-01-10T02:03:19.372Z,1006.53
2023-01-10T02:04:10.691Z,1006.53
2023-01-10T02:04:39.597Z,1006.53
2023-01-10T02:05:02.096Z,1006.53
2023-01-10T02:05:25.648Z,1006.53
2023-01-10T02:05:59.297Z,1006.53
2023-01-10T02:06:31.582Z,1006.74
2023-01-10T02:06:54.356Z,1006.43
2023-01-10T02:07:16.872Z,1006.43
2023-01-10T02:08:25.095Z,1006.64
2023-01-10T02:08:57.562Z,1006.64
2023-01-10T02:09:27.419Z,1006.64
2023-01-10T02:10:03.802Z,1006.64
2023-01-10T02:10:31.778Z,1006.64
2023-01-10T02:10:54.153Z,1006.74
2023-01-10T02:11:16.578Z,1006.74
2023-01-10T02:11:51.694Z,1006.74
2023-01-10T02:12:23.606Z,1006.53
2023-01-10T02:12:55.695Z,1006.53
2023-01-10T02:13:21.963Z,1006.94
2023-01-10T02:13:59.782Z,1006.94
2023-01-10T02:14:34.364Z,1006.74
2023-01-10T02:14:55.886Z,1006.74
2023-01-10T02:15:18.232Z,1006.74
2023-01-10T02:15:51.937Z,1006.74
2023-01-10T02:16:23.576Z,1006.74
2023-01-10T02:16:55.455Z,1006.74
2023-01-10T02:17:27.482Z,1006.74
2023-01-10T02:18:01.211Z,1006.74
2023-01-10T02:18:31.511Z,1006.94
2023-01-10T02:18:54.406Z,1006.74
2023-01-10T02:19:17.776Z,1006.74
2023-01-10T02:19:51.424Z,1006.74
2023-01-10T02:20:24.033Z,1006.74
2023-01-10T02:20:55.534Z,1006.74
2023-01-10T02:21:27.570Z,1006.84
2023-01-10T02:21:59.453Z,1006.84
2023-01-10T02:22:31.558Z,1006.84
2023-01-10T02:22:54.417Z,1006.94
2023-01-10T02:23:17.396Z,1006.94
2023-01-10T02:23:51.871Z,1006.94
2023-01-10T02:24:23.386Z,1006.64
2023-01-10T02:24:55.915Z,1006.64
2023-01-10T02:25:29.479Z,1006.74
2023-01-10T02:26:05.606Z,1006.74
2023-01-10T02:26:31.840Z,1006.94
2023-01-10T02:26:54.335Z,1007.01
2023-01-10T02:27:17.243Z,1007.01
2023-01-10T02:27:51.922Z,1007.01
2023-01-10T02:28:24.211Z,1006.74
2023-01-10T02:28:55.500Z,1006.74
2023-01-10T02:29:27.515Z,1007.01
2023-01-10T02:30:00.438Z,1007.01
2023-01-10T02:30:31.595Z,1006.94
2023-01-10T02:30:54.258Z,1007.11
2023-01-10T02:31:16.828Z,1007.11
2023-01-10T02:31:51.550Z,1007.11
2023-01-10T02:32:35.499Z,1006.84
2023-01-10T02:33:04.662Z,1006.84
2023-01-10T02:33:27.370Z,1007.21
2023-01-10T02:34:00.867Z,1007.21
2023-01-10T02:34:31.406Z,1006.84
2023-01-10T02:34:54.096Z,1006.94
2023-01-10T02:35:16.528Z,1006.94
2023-01-10T02:35:51.463Z,1006.94
2023-01-10T02:36:23.386Z,1006.94
2023-01-10T02:36:55.323Z,1006.94
2023-01-10T02:37:27.492Z,1007.11
2023-01-10T02:38:01.414Z,1007.11
2023-01-10T02:38:34.184Z,1006.94
2023-01-10T02:38:55.469Z,1007.11
2023-01-10T02:39:18.265Z,1007.11
2023-01-10T02:39:51.629Z,1007.11
2023-01-10T02:40:23.522Z,1007.01
2023-01-10T02:40:55.598Z,1007.01
2023-01-10T02:41:27.408Z,1007.01
2023-01-10T02:41:59.507Z,1007.01
2023-01-10T02:42:31.546Z,1007.01
2023-01-10T02:42:54.183Z,1007.31
2023-01-10T02:43:17.641Z,1007.31
2023-01-10T02:43:51.683Z,1007.31
2023-01-10T02:44:23.775Z,1007.11
2023-01-10T02:44:55.411Z,1007.11
2023-01-10T02:45:27.457Z,1007.11
2023-01-10T02:45:59.602Z,1007.11
2023-01-10T02:46:31.483Z,1007.01
2023-01-10T02:46:54.062Z,1007.11
2023-01-10T02:47:16.497Z,1007.11
2023-01-10T02:47:51.613Z,1007.11
2023-01-10T02:48:24.040Z,1006.94
2023-01-10T02:48:55.393Z,1006.94
2023-01-10T02:49:27.463Z,1007.01
2023-01-10T02:49:59.491Z,1007.01
2023-01-10T02:50:31.362Z,1007.01
2023-01-10T02:50:54.131Z,1007.01
2023-01-10T02:51:16.506Z,1007.01
2023-01-10T02:51:51.440Z,1007.01
2023-01-10T02:52:23.580Z,1007.01
2023-01-10T02:52:55.450Z,1007.01
2023-01-10T02:53:27.507Z,1007.21
2023-01-10T02:54:00.057Z,1007.21
2023-01-10T02:54:32.415Z,1007.01
2023-01-10T02:54:55.048Z,1007.01
2023-01-10T02:55:17.579Z,1007.01
2023-01-10T02:55:51.790Z,1007.01
2023-01-10T02:56:23.811Z,1007.31
2023-01-10T02:56:55.868Z,1007.31
2023-01-10T02:57:27.546Z,1007.21
2023-01-10T02:57:59.918Z,1007.21
2023-01-10T02:58:31.812Z,1007.01
2023-01-10T02:58:54.640Z,1007.42
2023-01-10T02:59:16.802Z,1007.42
2023-01-10T02:59:53.901Z,1007.42
2023-01-10T03:00:25.419Z,1007.21
2023-01-10T03:00:55.958Z,1007.21
2023-01-10T03:01:27.662Z,1007.21
2023-01-10T03:02:06.024Z,1007.21
2023-01-10T03:02:31.968Z,1007.21
2023-01-10T03:02:54.317Z,1007.21
2023-01-10T03:03:16.847Z,1007.21
2023-01-10T03:03:52.149Z,1007.21
2023-01-10T03:04:23.362Z,1007.11
2023-01-10T03:05:00.068Z,1007.21
2023-01-10T03:05:22.091Z,1007.21
2023-01-10T03:06:00.063Z,1007.21
2023-01-10T03:06:31.387Z,1007.01
2023-01-10T03:06:54.571Z,1006.94
2023-01-10T03:07:16.475Z,1006.94
2023-01-10T03:07:51.307Z,1006.94
2023-01-10T03:08:24.499Z,1007.31
2023-01-10T03:08:55.575Z,1007.31
2023-01-10T03:09:27.404Z,1007.31
2023-01-10T03:09:53.398Z,1007.31
2023-01-10T03:10:28.444Z,1007.21
2023-01-10T03:11:00.044Z,1007.31
2023-01-10T03:11:39.412Z,1007.31
2023-01-10T03:12:01.683Z,1007.31
2023-01-10T03:12:39.636Z,1007.31
2023-01-10T03:13:02.230Z,1007.11
2023-01-10T03:13:26.024Z,1007.11
2023-01-10T03:13:59.281Z,1007.11
2023-01-10T03:14:31.572Z,1007.31
2023-01-10T03:14:54.558Z,1007.31
2023-01-10T03:15:17.994Z,1007.31
2023-01-10T03:15:55.247Z,1007.11
2023-01-10T03:16:17.413Z,1007.11
2023-01-10T03:16:55.688Z,1007.11
2023-01-10T03:17:27.334Z,1007.31
2023-01-10T03:17:59.412Z,1007.31
2023-01-10T03:18:31.420Z,1007.62
2023-01-10T03:18:54.063Z,1007.52
2023-01-10T03:19:16.966Z,1007.52
2023-01-10T03:19:51.397Z,1007.52
2023-01-10T03:20:23.417Z,1007.31
2023-01-10T03:20:55.345Z,1007.31
2023-01-10T03:21:27.402Z,1007.52
2023-01-10T03:21:59.584Z,1007.52
2023-01-10T03:22:31.292Z,1007.31
2023-01-10T03:22:54.184Z,1007.31
2023-01-10T03:23:16.565Z,1007.31
2023-01-10T03:23:51.427Z,1007.31
2023-01-10T03:24:23.425Z,1007.31
2023-01-10T03:24:55.335Z,1007.31
2023-01-10T03:25:34.459Z,1007.11
2023-01-10T03:25:59.394Z,1007.11
2023-01-10T03:26:31.426Z,1007.21
2023-01-10T03:26:53.987Z,1007.42
2023-01-10T03:27:16.509Z,1007.42
2023-01-10T03:31:48.987Z,1007.42
2023-01-10T03:32:30.585Z,1007.42
2023-01-10T03:32:53.039Z,1007.42
2023-01-10T03:33:21.767Z,1007.42
2023-01-10T03:34:05.795Z,1007.62
2023-01-10T03:34:28.130Z,1007.62
2023-01-10T03:34:56.880Z,1007.72
2023-01-10T03:35:19.480Z,1007.72
2023-01-10T03:35:48.596Z,1007.72
2023-01-10T03:36:30.721Z,1007.72
2023-01-10T03:36:53.089Z,1007.72
2023-01-10T03:37:21.961Z,1007.62
2023-01-10T03:37:59.517Z,1007.62
2023-01-10T03:38:31.412Z,1007.52
2023-01-10T03:38:54.920Z,1007.92
2023-01-10T03:39:17.263Z,1007.92
2023-01-10T03:39:51.322Z,1007.92
2023-01-10T03:40:23.356Z,1007.82
2023-01-10T03:40:55.442Z,1007.82
2023-01-10T03:41:27.324Z,1007.82
2023-01-10T03:41:59.299Z,1007.82
2023-01-10T03:42:31.400Z,1007.72
2023-01-10T03:42:54.436Z,1008.02
2023-01-10T03:43:16.892Z,1008.02
2023-01-10T03:43:51.301Z,1008.02
2023-01-10T03:44:23.447Z,1007.72
2023-01-10T03:44:55.304Z,1007.72
2023-01-10T03:45:27.437Z,1008.02
2023-01-10T03:45:59.390Z,1008.02
2023-01-10T03:46:31.372Z,1007.92
2023-01-10T03:46:54.230Z,1007.92
2023-01-10T03:47:16.513Z,1007.92
2023-01-10T03:47:51.454Z,1007.92
2023-01-10T03:48:23.267Z,1008.02
2023-01-10T03:48:55.555Z,1008.02
2023-01-10T03:49:27.227Z,1008.13
2023-01-10T03:49:59.432Z,1008.13
2023-01-10T03:50:31.354Z,1007.92
2023-01-10T03:50:54.215Z,1008.13
2023-01-10T03:51:16.636Z,1008.13
2023-01-10T03:51:51.351Z,1008.13
2023-01-10T03:52:23.322Z,1007.92
2023-01-10T03:52:55.530Z,1007.92
2023-01-10T03:53:27.418Z,1008.02
2023-01-10T03:53:59.391Z,1008.02
2023-01-10T03:54:31.393Z,1008.13
2023-01-10T03:54:54.191Z,1008.02
2023-01-10T03:55:16.557Z,1008.02
2023-01-10T03:55:51.322Z,1008.02
2023-01-10T03:56:23.369Z,1008.02
2023-01-10T03:56:55.399Z,1008.02
2023-01-10T03:57:27.496Z,1008.02
2023-01-10T03:57:59.504Z,1008.02
2023-01-10T03:58:31.421Z,1007.92
2023-01-10T03:58:54.145Z,1008.23
2023-01-10T03:59:16.977Z,1008.23
2023-01-10T03:59:51.445Z,1008.23
2023-01-10T04:00:23.447Z,1007.92
2023-01-10T04:00:55.486Z,1007.92
2023-01-10T04:01:27.561Z,1008.13
2023-01-10T04:01:59.565Z,1008.13
2023-01-10T04:02:31.367Z,1008.23
2023-01-10T04:02:54.031Z,1008.13
2023-01-10T04:03:16.697Z,1008.13
2023-01-10T04:03:51.421Z,1008.13
2023-01-10T04:04:23.473Z,1008.23
2023-01-10T04:04:55.345Z,1008.23
2023-01-10T04:05:27.378Z,1008.13
2023-01-10T04:05:59.338Z,1008.13
2023-01-10T04:06:31.343Z,1008.33
2023-01-10T04:06:54.729Z,1008.13
2023-01-10T04:07:17.166Z,1008.13
2023-01-10T04:07:51.256Z,1008.13
2023-01-10T04:08:23.528Z,1008.23
2023-01-10T04:08:55.369Z,1008.23
2023-01-10T04:09:27.310Z,1008.23
2023-01-10T04:09:59.265Z,1008.23
2023-01-10T04:10:31.440Z,1008.13
2023-01-10T04:10:54.155Z,1008.02
2023-01-10T04:11:16.552Z,1008.02
2023-01-10T04:11:51.311Z,1008.02
2023-01-10T04:12:23.849Z,1008.13
2023-01-10T04:12:55.413Z,1008.13
2023-01-10T04:13:27.367Z,1008.13
2023-01-10T04:13:59.258Z,1008.13
2023-01-10T04:14:31.351Z,1008.43
2023-01-10T04:14:54.332Z,1008.33
2023-01-10T04:15:16.806Z,1008.33
2023-01-10T04:15:51.376Z,1008.33
2023-01-10T04:16:23.930Z,1008.02
2023-01-10T04:16:55.469Z,1008.02
2023-01-10T04:17:27.237Z,1008.13
2023-01-10T04:17:59.261Z,1008.13
2023-01-10T04:18:31.275Z,1008.33
2023-01-10T04:18:53.930Z,1008.33
2023-01-10T04:19:16.408Z,1008.33
2023-01-10T04:19:51.312Z,1008.33
2023-01-10T04:20:23.320Z,1008.33
2023-01-10T04:20:55.332Z,1008.33
2023-01-10T04:21:27.343Z,1008.33
2023-01-10T04:21:59.444Z,1008.33
2023-01-10T04:22:31.324Z,1008.23
2023-01-10T04:22:54.180Z,1008.23
2023-01-10T04:23:16.515Z,1008.23
2023-01-10T04:23:51.522Z,1008.23
2023-01-10T04:24:23.209Z,1008.53
2023-01-10T04:24:55.465Z,1008.53
2023-01-10T04:25:27.315Z,1008.33
2023-01-10T04:25:59.593Z,1008.33
2023-01-10T04:26:31.240Z,1008.43
2023-01-10T04:26:54.062Z,1008.53
2023-01-10T04:27:16.565Z,1008.53
2023-01-10T04:27:51.199Z,1008.53
2023-01-10T04:28:24.680Z,1008.43
2023-01-10T04:28:55.309Z,1008.43
2023-01-10T04:29:27.332Z,1008.43
2023-01-10T04:29:59.351Z,1008.43
2023-01-10T04:30:31.466Z,1008.43
2023-01-10T04:30:54.149Z,1008.63
2023-01-10T04:31:16.748Z,1008.63
2023-01-10T04:31:51.558Z,1008.63
2023-01-10T04:32:23.715Z,1008.63
2023-01-10T04:32:55.548Z,1008.63
2023-01-10T04:33:27.402Z,1008.43
2023-01-10T04:33:59.468Z,1008.43
2023-01-10T04:34:31.657Z,1008.53
2023-01-10T04:34:54.050Z,1008.74
2023-01-10T04:35:17.240Z,1008.74
2023-01-10T04:35:51.234Z,1008.74
2023-01-10T04:36:23.280Z,1008.53
2023-01-10T04:36:55.316Z,1008.53
2023-01-10T04:37:27.419Z,1008.63
2023-01-10T04:37:59.348Z,1008.63
2023-01-10T04:38:31.537Z,1008.33
2023-01-10T04:38:54.749Z,1008.53
2023-01-10T04:39:17.698Z,1008.53
2023-01-10T04:39:51.444Z,1008.53
2023-01-10T04:40:23.549Z,1008.53
2023-01-10T04:40:55.467Z,1008.53
2023-01-10T04:41:27.268Z,1008.53
2023-01-10T04:41:59.362Z,1008.53
2023-01-10T04:42:31.749Z,1008.63
2023-01-10T04:42:54.246Z,1008.63
2023-01-10T04:43:18.111Z,1008.63
2023-01-10T04:43:51.201Z,1008.63
2023-01-10T04:44:23.245Z,1008.74
2023-01-10T04:44:55.233Z,1008.74
2023-01-10T04:45:27.413Z,1008.63
2023-01-10T04:45:59.435Z,1008.63
2023-01-10T04:46:31.575Z,1008.53
2023-01-10T04:46:54.386Z,1008.63
2023-01-10T04:47:18.813Z,1008.63
2023-01-10T04:47:51.323Z,1008.63
2023-01-10T04:48:23.435Z,1008.63
2023-01-10T04:48:55.256Z,1008.63
2023-01-10T04:49:21.187Z,1008.63
2023-01-10T04:49:59.811Z,1008.63
2023-01-10T04:50:31.451Z,1008.84
2023-01-10T04:50:53.740Z,1008.84
2023-01-10T04:51:18.983Z,1008.84
2023-01-10T04:51:52.771Z,1008.84
2023-01-10T04:52:23.625Z,1008.63
2023-01-10T04:52:55.409Z,1008.63
2023-01-10T04:53:27.264Z,1008.63
2023-01-10T04:54:00.788Z,1008.63
2023-01-10T04:54:31.707Z,1008.84
2023-01-10T04:54:54.382Z,1008.84
2023-01-10T04:55:17.156Z,1008.84
2023-01-10T04:55:51.610Z,1008.84
2023-01-10T04:56:25.137Z,1008.74
2023-01-10T04:56:56.038Z,1008.74
2023-01-10T04:57:28.634Z,1009.11
2023-01-10T04:58:00.119Z,1009.11
2023-01-10T04:58:31.442Z,1008.84
2023-01-10T04:58:54.354Z,1008.94
2023-01-10T04:59:16.565Z,1008.94
2023-01-10T04:59:59.973Z,1009.04
2023-01-10T05:00:22.568Z,1009.04
2023-01-10T05:00:55.676Z,1009.04
2023-01-10T05:01:27.832Z,1008.84
2023-01-10T05:02:00.942Z,1008.84
2023-01-10T05:02:31.565Z,1008.84
2023-01-10T05:02:55.764Z,1008.94
2023-01-10T05:03:17.767Z,1008.94
2023-01-10T05:03:52.932Z,1008.94
2023-01-10T05:04:25.091Z,1009.04
2023-01-10T05:04:56.103Z,1009.04
2023-01-10T05:05:27.445Z,1009.04
2023-01-10T05:05:59.775Z,1009.04
2023-01-10T05:06:32.057Z,1008.63
2023-01-10T05:06:54.727Z,1008.94
2023-01-10T05:07:17.445Z,1008.94
2023-01-10T05:07:51.822Z,1008.94
2023-01-10T05:08:23.476Z,1008.94
2023-01-10T05:08:56.051Z,1008.94
2023-01-10T05:09:28.104Z,1008.94
2023-01-10T05:09:59.754Z,1008.94
2023-01-10T05:10:31.836Z,1009.11
2023-01-10T05:10:54.572Z,1008.94
2023-01-10T05:11:18.803Z,1008.94
2023-01-10T05:11:51.669Z,1008.94
2023-01-10T05:12:23.925Z,1008.94
2023-01-10T05:12:55.356Z,1008.94
2023-01-10T05:13:27.516Z,1008.94
2023-01-10T05:13:59.339Z,1008.94
2023-01-10T05:14:31.580Z,1009.04
2023-01-10T05:14:54.213Z,1009.11
2023-01-10T05:15:16.696Z,1009.11
2023-01-10T05:15:51.207Z,1009.11
2023-01-10T05:16:25.568Z,1008.94
2023-01-10T05:16:55.358Z,1008.94
2023-01-10T05:17:27.383Z,1008.84
2023-01-10T05:17:59.373Z,1008.84
2023-01-10T05:18:31.439Z,1009.11
2023-01-10T05:18:54.152Z,1009.11
2023-01-10T05:19:17.052Z,1009.11
2023-01-10T05:19:51.250Z,1009.11
2023-01-10T05:20:23.376Z,1009.21
2023-01-10T05:20:55.777Z,1009.21
2023-01-10T05:21:27.654Z,1009.11
2023-01-10T05:21:59.429Z,1009.11
2023-01-10T05:22:32.026Z,1009.11
2023-01-10T05:22:54.606Z,1009.04
2023-01-10T05:23:17.060Z,1009.04
2023-01-10T05:23:52.508Z,1009.04
2023-01-10T05:24:23.299Z,1009.04
2023-01-10T05:24:55.936Z,1009.04
2023-01-10T05:25:27.386Z,1009.04
2023-01-10T05:26:01.965Z,1008.94
2023-01-10T05:26:33.032Z,1008.94
2023-01-10T05:26:55.126Z,1009.04
2023-01-10T05:27:18.216Z,1009.04
2023-01-10T05:27:51.512Z,1009.04
2023-01-10T05:28:24.144Z,1009.04
2023-01-10T05:28:55.318Z,1009.04
2023-01-10T05:29:28.196Z,1009.21
2023-01-10T05:29:59.828Z,1009.21
2023-01-10T05:30:31.367Z,1009.41
2023-01-10T05:30:54.003Z,1009.11
2023-01-10T05:31:16.773Z,1009.11
2023-01-10T05:31:52.805Z,1009.11
2023-01-10T05:32:24.436Z,1009.41
2023-01-10T05:32:56.816Z,1009.41
2023-01-10T05:33:27.690Z,1009.21
2023-01-10T05:33:59.433Z,1009.21
2023-01-10T05:34:31.553Z,1009.31
2023-01-10T05:34:55.837Z,1009.21
2023-01-10T05:35:17.155Z,1009.21
2023-01-10T05:35:52.219Z,1009.21
2023-01-10T05:36:24.903Z,1009.41
2023-01-10T05:36:56.230Z,1009.41
2023-01-10T05:37:28.243Z,1009.41
2023-01-10T05:37:59.637Z,1009.41
2023-01-10T05:38:31.801Z,1009.31
2023-01-10T05:38:54.513Z,1009.41
2023-01-10T05:39:17.449Z,1009.41
2023-01-10T05:39:54.518Z,1009.41
2023-01-10T05:40:25.280Z,1009.41
2023-01-10T05:40:58.311Z,1009.41
2023-01-10T05:41:27.376Z,1009.41
2023-01-10T05:41:59.965Z,1009.41
2023-01-10T05:42:31.299Z,1009.31
2023-01-10T05:42:54.016Z,1009.41
2023-01-10T05:43:16.387Z,1009.41
2023-01-10T05:43:51.334Z,1009.41
2023-01-10T05:44:23.321Z,1009.51
2023-01-10T05:44:55.309Z,1009.51
2023-01-10T05:45:27.339Z,1009.31
2023-01-10T05:45:59.442Z,1009.31
2023-01-10T05:46:31.617Z,1009.21
2023-01-10T05:46:54.390Z,1009.41
2023-01-10T05:47:16.938Z,1009.41
2023-01-10T05:47:52.982Z,1009.41
2023-01-10T05:48:24.039Z,1009.21
2023-01-10T05:48:55.446Z,1009.21
2023-01-10T05:49:27.341Z,1009.51
2023-01-10T05:49:59.539Z,1009.51
2023-01-10T05:50:31.513Z,1009.51
2023-01-10T05:50:54.009Z,1009.62
2023-01-10T05:51:16.903Z,1009.62
2023-01-10T05:51:51.374Z,1009.62
2023-01-10T05:52:23.504Z,1009.51
2023-01-10T05:52:55.323Z,1009.51
2023-01-10T05:53:27.937Z,1009.51
2023-01-10T05:53:59.833Z,1009.51
2023-01-10T05:54:32.190Z,1009.72
2023-01-10T05:54:55.016Z,1009.41
2023-01-10T05:55:17.301Z,1009.41
2023-01-10T05:55:51.703Z,1009.41
2023-01-10T05:56:23.923Z,1009.92
2023-01-10T05:56:55.812Z,1009.92
2023-01-10T05:57:27.746Z,1009.62
2023-01-10T05:58:00.870Z,1009.62
2023-01-10T05:58:31.218Z,1009.72
2023-01-10T05:59:00.621Z,1009.62
2023-01-10T05:59:28.006Z,1009.62
2023-01-10T05:59:52.419Z,1009.62
2023-01-10T06:00:28.852Z,1009.62
2023-01-10T06:00:55.378Z,1009.62
2023-01-10T06:01:28.275Z,1009.72
2023-01-10T06:01:59.684Z,1009.72
2023-01-10T06:02:32.962Z,1009.72
2023-01-10T06:02:55.622Z,1009.62
2023-01-10T06:03:17.454Z,1009.62
2023-01-10T06:03:57.167Z,1009.62
2023-01-10T06:04:23.578Z,1009.62
2023-01-10T06:04:56.498Z,1009.62
2023-01-10T06:05:31.385Z,1009.62
2023-01-10T06:06:00.061Z,1009.62
2023-01-10T06:06:31.512Z,1009.62
2023-01-10T06:06:54.721Z,1009.82
2023-01-10T06:07:17.240Z,1009.82